Time;durP1;ratioP1;P1;durP2;ratioP2;P2;SDS_P1;SDS_P2;PMS_P1;PMS_P2;Temp;Humidity;BMP_temperature;BMP_pressure;BME280_temperature;BME280_humidity;BME280_pressure;Samples;Min_cycle;Max_cycle;Signal;HPM_P1;HPM_P2
2021/08/04 00:00:34;;;;;;;5.18;4.35;;;14.70;99.90;;;;;;4950427;29;20027;-85
2021/08/04 00:03:00;;;;;;;6.97;4.78;;;14.80;99.90;;;;;;4951573;29;20366;-86
2021/08/04 00:05:26;;;;;;;5.57;4.75;;;14.80;99.90;;;;;;4951174;29;20473;-86
2021/08/04 00:07:51;;;;;;;7.72;5.00;;;14.70;99.90;;;;;;4950365;29;20028;-86
2021/08/04 00:10:18;;;;;;;4.68;4.28;;;14.70;99.90;;;;;;4950317;29;20051;-85
2021/08/04 00:12:44;;;;;;;5.82;4.70;;;14.60;99.90;;;;;;4950269;29;20034;-85
2021/08/04 00:15:11;;;;;;;5.07;4.68;;;14.60;99.90;;;;;;4951485;29;20032;-85
2021/08/04 00:17:38;;;;;;;8.05;4.47;;;14.60;99.90;;;;;;4966653;28;20019;-85
2021/08/04 00:20:05;;;;;;;6.63;4.85;;;14.60;99.90;;;;;;4950041;29;20035;-85
2021/08/04 00:22:31;;;;;;;7.35;4.72;;;14.60;99.90;;;;;;4980123;28;20045;-86
2021/08/04 00:24:57;;;;;;;5.65;4.85;;;14.60;99.90;;;;;;4968698;28;20413;-86
2021/08/04 00:27:24;;;;;;;8.75;6.40;;;14.60;99.90;;;;;;4970704;28;20125;-86
2021/08/04 00:29:49;;;;;;;8.43;5.53;;;14.60;99.90;;;;;;4969767;28;20023;-86
2021/08/04 00:32:15;;;;;;;7.15;4.70;;;14.60;99.90;;;;;;4985633;28;20494;-86
2021/08/04 00:34:41;;;;;;;6.05;5.03;;;14.60;99.90;;;;;;4986656;28;20022;-86
2021/08/04 00:37:06;;;;;;;5.63;5.13;;;14.70;99.90;;;;;;4988919;28;20041;-86
2021/08/04 00:39:32;;;;;;;5.80;5.03;;;14.70;99.90;;;;;;4974118;28;20045;-85
2021/08/04 00:41:58;;;;;;;6.53;4.80;;;14.70;99.90;;;;;;4973591;28;20034;-85
2021/08/04 00:44:23;;;;;;;5.60;5.00;;;14.80;99.90;;;;;;4973346;28;20498;-86
2021/08/04 00:46:49;;;;;;;5.82;5.30;;;14.80;99.90;;;;;;4988516;28;20065;-85
2021/08/04 00:49:15;;;;;;;5.50;5.00;;;14.80;99.90;;;;;;4988518;28;20069;-85
2021/08/04 00:51:41;;;;;;;5.30;4.78;;;14.80;99.90;;;;;;4987846;28;20072;-85
2021/08/04 00:54:08;;;;;;;6.78;5.07;;;14.70;99.90;;;;;;4988852;28;20550;-85
2021/08/04 00:56:35;;;;;;;7.82;5.57;;;14.70;99.90;;;;;;4988625;28;20018;-85
2021/08/04 00:59:02;;;;;;;7.50;5.53;;;14.70;99.90;;;;;;4973526;28;20030;-85
2021/08/04 01:01:35;;;;;;;10.30;6.25;;;14.70;99.90;;;;;;4973762;28;20042;-84
2021/08/04 01:04:11;;;;;;;7.97;6.28;;;14.80;99.90;;;;;;4988696;28;20030;-85
2021/08/04 01:06:49;;;;;;;8.52;6.28;;;14.80;99.90;;;;;;4988890;28;20506;-86
2021/08/04 01:09:17;;;;;;;7.05;6.35;;;14.80;99.90;;;;;;4988512;28;20027;-86
2021/08/04 01:11:49;;;;;;;6.47;5.78;;;14.70;99.90;;;;;;4973388;28;20022;-86
2021/08/04 01:14:19;;;;;;;8.45;6.97;;;14.70;99.90;;;;;;4973251;28;20019;-86
2021/08/04 01:16:46;;;;;;;9.00;7.00;;;14.70;99.90;;;;;;4988225;28;20152;-86
2021/08/04 01:19:44;;;;;;;8.15;6.63;;;14.70;99.90;;;;;;4973018;28;20088;-86
2021/08/04 01:22:29;;;;;;;8.57;5.95;;;14.60;99.90;;;;;;4972615;28;20042;-85
2021/08/04 01:25:16;;;;;;;6.55;5.68;;;14.70;99.90;;;;;;4973083;28;20030;-85
2021/08/04 01:28:08;;;;;;;7.65;6.32;;;14.70;99.90;;;;;;4973396;28;20152;-85
2021/08/04 01:30:34;;;;;;;7.82;6.35;;;14.70;99.90;;;;;;4973150;28;20504;-85
2021/08/04 01:32:59;;;;;;;7.55;5.93;;;14.80;99.90;;;;;;4972866;28;20038;-86
2021/08/04 01:35:25;;;;;;;6.60;5.32;;;14.80;99.90;;;;;;4972889;28;20027;-86
2021/08/04 01:37:52;;;;;;;5.82;5.25;;;14.80;99.90;;;;;;4972748;28;20027;-87
2021/08/04 01:40:17;;;;;;;7.57;5.68;;;14.80;99.90;;;;;;4987909;28;20031;-86
2021/08/04 01:42:44;;;;;;;7.75;5.63;;;14.80;99.90;;;;;;4987758;28;20449;-86
2021/08/04 01:45:10;;;;;;;7.07;5.82;;;15.00;99.90;;;;;;4972686;28;20132;-86
2021/08/04 01:47:37;;;;;;;6.63;5.50;;;15.00;99.90;;;;;;4971697;28;20110;-86
2021/08/04 01:50:03;;;;;;;8.50;6.95;;;15.00;99.90;;;;;;4971641;28;20031;-86
2021/08/04 01:52:30;;;;;;;6.30;5.70;;;14.90;99.90;;;;;;4955227;28;20031;-86
2021/08/04 01:54:57;;;;;;;8.70;5.82;;;15.00;99.90;;;;;;4953407;29;20024;-85
2021/08/04 01:57:22;;;;;;;7.90;6.45;;;15.00;99.90;;;;;;4968324;28;20062;-85
2021/08/04 01:59:48;;;;;;;8.73;6.40;;;15.00;99.90;;;;;;4968164;28;20063;-85
2021/08/04 02:02:23;;;;;;;7.15;5.25;;;15.00;99.90;;;;;;4953089;29;20043;-86
2021/08/04 02:04:51;;;;;;;9.43;6.30;;;15.00;99.90;;;;;;4952018;28;20396;-86
2021/08/04 02:07:35;;;;;;;5.32;4.88;;;15.00;99.90;;;;;;4953171;28;20055;-85
2021/08/04 02:10:07;;;;;;;5.07;4.07;;;14.90;99.90;;;;;;4967995;28;20024;-85
2021/08/04 02:12:44;;;;;;;6.47;4.80;;;14.80;99.90;;;;;;4953389;29;20103;-86
2021/08/04 02:15:13;;;;;;;8.60;5.43;;;14.80;99.90;;;;;;4952996;29;20029;-86
2021/08/04 02:17:45;;;;;;;5.45;4.78;;;14.80;99.90;;;;;;4952070;29;20412;-86
2021/08/04 02:20:16;;;;;;;5.30;4.80;;;14.80;99.90;;;;;;4951895;29;20458;-87
2021/08/04 02:22:48;;;;;;;6.33;5.73;;;14.80;99.90;;;;;;4967711;28;20040;-87
2021/08/04 02:25:28;;;;;;;8.38;5.10;;;14.80;99.90;;;;;;4952914;29;20039;-86
2021/08/04 02:27:56;;;;;;;5.38;4.75;;;14.80;99.90;;;;;;4951957;29;20034;-86
2021/08/04 02:30:23;;;;;;;7.38;6.18;;;14.80;99.90;;;;;;4952923;29;20537;-86
2021/08/04 02:32:50;;;;;;;10.90;6.07;;;14.80;99.90;;;;;;4951919;29;20031;-86
2021/08/04 02:35:16;;;;;;;7.20;5.93;;;14.80;99.90;;;;;;4951812;29;20035;-85
2021/08/04 02:37:44;;;;;;;6.40;5.72;;;14.70;99.90;;;;;;4952820;29;20031;-85
2021/08/04 02:40:10;;;;;;;5.43;4.88;;;14.70;99.90;;;;;;4951415;28;20122;-86
2021/08/04 02:42:37;;;;;;;7.25;4.82;;;14.60;99.90;;;;;;4959282;28;20088;-86
2021/08/04 02:45:06;;;;;;;5.13;4.63;;;14.50;99.90;;;;;;4970747;28;20096;-87
2021/08/04 02:47:33;;;;;;;5.60;4.93;;;14.50;99.90;;;;;;4971832;28;20105;-86
2021/08/04 02:50:01;;;;;;;9.70;5.95;;;14.50;99.90;;;;;;4971749;28;20528;-86
2021/08/04 02:52:27;;;;;;;7.68;5.78;;;14.60;99.90;;;;;;4970594;28;20026;-86
2021/08/04 02:54:53;;;;;;;7.53;5.53;;;14.50;99.90;;;;;;4970563;28;20023;-86
2021/08/04 02:57:19;;;;;;;6.18;5.57;;;14.50;99.90;;;;;;4970054;28;20027;-87
2021/08/04 02:59:44;;;;;;;10.95;6.63;;;14.50;99.90;;;;;;4983482;28;20396;-87
2021/08/04 03:02:10;;;;;;;6.63;6.03;;;14.50;99.90;;;;;;4971496;28;20175;-87
2021/08/04 03:04:36;;;;;;;7.38;6.05;;;14.60;99.90;;;;;;4971523;28;20027;-87
2021/08/04 03:07:02;;;;;;;6.32;5.40;;;14.60;99.90;;;;;;4958386;28;20035;-87
2021/08/04 03:09:27;;;;;;;6.43;5.38;;;14.60;99.90;;;;;;4952322;29;20029;-86
2021/08/04 03:11:53;;;;;;;11.65;6.18;;;14.70;99.90;;;;;;4950989;29;20031;-86
2021/08/04 03:14:18;;;;;;;8.40;6.38;;;14.70;99.90;;;;;;4952530;29;20073;-87
2021/08/04 03:16:45;;;;;;;7.60;6.25;;;14.70;99.90;;;;;;4952291;29;20032;-87
2021/08/04 03:19:11;;;;;;;7.32;5.68;;;14.70;99.90;;;;;;4951164;29;20484;-87
2021/08/04 03:21:37;;;;;;;8.73;5.82;;;14.70;99.90;;;;;;4952412;29;20500;-86
2021/08/04 03:24:03;;;;;;;6.70;6.10;;;14.70;99.90;;;;;;4950765;29;20046;-86
2021/08/04 03:26:28;;;;;;;8.77;7.55;;;14.70;99.90;;;;;;4951822;29;20504;-87
2021/08/04 03:28:54;;;;;;;10.50;7.78;;;14.60;99.90;;;;;;4952710;28;20055;-87
2021/08/04 03:31:20;;;;;;;7.93;6.65;;;14.60;99.90;;;;;;4970841;28;20110;-87
2021/08/04 03:33:45;;;;;;;13.32;7.47;;;14.60;99.90;;;;;;4986341;28;20114;-86
2021/08/04 03:36:11;;;;;;;9.15;6.80;;;14.60;99.90;;;;;;4969810;28;20023;-87
2021/08/04 03:38:37;;;;;;;6.78;6.10;;;14.60;99.90;;;;;;4957744;28;20042;-86
2021/08/04 03:41:03;;;;;;;8.38;6.32;;;14.60;99.90;;;;;;4953086;28;20046;-86
2021/08/04 03:43:28;;;;;;;6.47;5.88;;;14.60;99.90;;;;;;4951873;29;20042;-87
2021/08/04 03:45:54;;;;;;;8.90;6.25;;;14.60;99.90;;;;;;4966530;28;20027;-86
2021/08/04 03:48:20;;;;;;;8.30;6.88;;;14.70;99.90;;;;;;4950461;29;20027;-85
2021/08/04 03:50:45;;;;;;;8.02;6.47;;;14.70;99.90;;;;;;4951868;29;20024;-85
2021/08/04 03:53:11;;;;;;;7.93;7.13;;;14.70;99.90;;;;;;4951523;29;20035;-86
2021/08/04 03:55:37;;;;;;;11.05;7.25;;;14.70;99.90;;;;;;4950649;29;20027;-86
2021/08/04 03:58:02;;;;;;;7.32;6.10;;;14.70;99.90;;;;;;4951615;29;20499;-86
2021/08/04 04:00:28;;;;;;;8.70;6.50;;;14.70;99.90;;;;;;4962763;28;20122;-85
2021/08/04 04:02:54;;;;;;;10.15;6.57;;;14.80;99.90;;;;;;4969607;28;20037;-85
2021/08/04 04:05:19;;;;;;;7.70;6.95;;;14.80;99.90;;;;;;4970956;28;20034;-85
2021/08/04 04:07:45;;;;;;;13.73;7.32;;;14.80;99.90;;;;;;4969648;28;20030;-85
2021/08/04 04:10:11;;;;;;;11.65;7.97;;;14.80;99.90;;;;;;4987203;28;20033;-85
2021/08/04 04:12:37;;;;;;;9.10;7.88;;;14.80;99.90;;;;;;4972861;28;20081;-86
2021/08/04 04:15:03;;;;;;;12.48;7.00;;;14.80;99.90;;;;;;4974493;28;20101;-85
2021/08/04 04:17:29;;;;;;;8.40;7.55;;;14.80;99.90;;;;;;4974172;28;20475;-85
2021/08/04 04:19:55;;;;;;;9.95;7.72;;;14.80;99.90;;;;;;4972901;28;20057;-85
2021/08/04 04:22:20;;;;;;;9.48;7.72;;;14.80;99.90;;;;;;4974032;28;20042;-86
2021/08/04 04:24:46;;;;;;;10.40;7.13;;;14.70;99.90;;;;;;4973257;28;20023;-87
2021/08/04 04:27:11;;;;;;;8.82;7.65;;;14.80;99.90;;;;;;4971179;28;20046;-86
2021/08/04 04:29:38;;;;;;;9.60;7.95;;;14.80;99.90;;;;;;4983655;28;20019;-86
2021/08/04 04:32:05;;;;;;;9.05;7.10;;;14.80;99.90;;;;;;4973836;28;20026;-85
2021/08/04 04:34:31;;;;;;;8.02;7.22;;;14.80;99.90;;;;;;4988433;28;20023;-85
2021/08/04 04:36:57;;;;;;;9.48;6.95;;;14.80;99.90;;;;;;4972576;28;20026;-85
2021/08/04 04:39:22;;;;;;;8.32;7.38;;;14.80;99.90;;;;;;4988961;28;20437;-85
2021/08/04 04:41:48;;;;;;;9.85;7.80;;;14.90;99.90;;;;;;4989063;28;20066;-85
2021/08/04 04:44:13;;;;;;;8.30;7.35;;;14.90;99.90;;;;;;4973559;28;20476;-85
2021/08/04 04:46:39;;;;;;;8.25;7.28;;;15.00;99.90;;;;;;4974039;28;20031;-85
2021/08/04 04:49:05;;;;;;;9.38;8.27;;;15.00;99.90;;;;;;4988872;28;20080;-85
2021/08/04 04:51:30;;;;;;;9.18;8.27;;;15.10;99.90;;;;;;4988099;28;20059;-85
2021/08/04 04:53:56;;;;;;;11.23;7.80;;;15.20;99.90;;;;;;4988476;28;20026;-85
2021/08/04 04:56:22;;;;;;;9.27;8.10;;;15.20;99.90;;;;;;4973882;28;20102;-86
2021/08/04 04:58:48;;;;;;;8.95;7.95;;;15.20;99.90;;;;;;4976298;28;20031;-86
2021/08/04 05:01:13;;;;;;;10.32;7.43;;;15.30;99.90;;;;;;4954027;29;20043;-86
2021/08/04 05:03:39;;;;;;;11.75;7.70;;;15.30;99.90;;;;;;4952983;29;20030;-86
2021/08/04 05:06:04;;;;;;;10.07;7.88;;;15.30;99.90;;;;;;4968977;28;20035;-86
2021/08/04 05:08:30;;;;;;;11.95;8.20;;;15.40;99.90;;;;;;4953993;29;20034;-86
2021/08/04 05:10:56;;;;;;;10.23;7.35;;;15.40;99.90;;;;;;4954272;29;20026;-86
2021/08/04 05:13:21;;;;;;;10.23;7.13;;;15.50;99.90;;;;;;4953611;28;20031;-85
2021/08/04 05:15:47;;;;;;;9.05;8.10;;;15.60;99.90;;;;;;4987914;28;20393;-86
2021/08/04 05:18:13;;;;;;;10.95;8.40;;;15.60;99.90;;;;;;4972085;28;20476;-85
2021/08/04 05:20:38;;;;;;;11.45;8.38;;;15.70;99.90;;;;;;4972129;28;20082;-86
2021/08/04 05:23:04;;;;;;;14.50;9.02;;;15.80;99.90;;;;;;4973116;28;20365;-86
2021/08/04 05:25:29;;;;;;;10.68;8.15;;;15.80;99.90;;;;;;4971793;28;20026;-86
2021/08/04 05:27:55;;;;;;;12.10;7.57;;;15.80;99.90;;;;;;4964476;28;20035;-84
2021/08/04 05:30:24;;;;;;;12.18;8.02;;;15.80;99.90;;;;;;4953849;28;20043;-86
2021/08/04 05:32:50;;;;;;;9.95;7.53;;;15.80;99.90;;;;;;4969199;28;20019;-86
2021/08/04 05:35:15;;;;;;;13.48;8.70;;;15.90;99.90;;;;;;4970553;28;20050;-86
2021/08/04 05:37:41;;;;;;;10.88;7.78;;;15.90;99.90;;;;;;4969586;28;20102;-87
2021/08/04 05:40:09;;;;;;;13.77;8.32;;;16.00;99.90;;;;;;5054641;28;20047;-87
2021/08/04 05:42:34;;;;;;;14.32;8.65;;;16.00;99.90;;;;;;4971217;28;20030;-86
2021/08/04 05:45:00;;;;;;;14.32;8.80;;;16.00;99.90;;;;;;4969963;28;20042;-84
2021/08/04 05:47:25;;;;;;;14.63;10.10;;;16.10;99.90;;;;;;4986276;28;20377;-84
2021/08/04 05:49:51;;;;;;;13.27;9.35;;;16.20;99.90;;;;;;4969590;28;20560;-85
2021/08/04 05:52:17;;;;;;;14.75;11.10;;;16.30;99.90;;;;;;4977342;28;20023;-86
2021/08/04 05:54:42;;;;;;;14.20;9.63;;;16.30;99.90;;;;;;4950518;28;20477;-87
2021/08/04 05:57:08;;;;;;;14.82;10.02;;;16.30;99.90;;;;;;4971787;28;20034;-89
2021/08/04 05:59:34;;;;;;;19.50;11.40;;;16.40;99.90;;;;;;4970117;28;20023;-88
2021/08/04 06:02:00;;;;;;;15.95;11.18;;;16.40;99.90;;;;;;4969361;28;20080;-90
2021/08/04 06:04:26;;;;;;;15.32;11.30;;;16.50;99.90;;;;;;4968720;28;20026;-88
2021/08/04 06:06:51;;;;;;;21.33;12.75;;;16.50;99.90;;;;;;4969060;28;20030;-89
2021/08/04 06:09:17;;;;;;;21.65;12.80;;;16.50;99.90;;;;;;4969992;28;20469;-89
2021/08/04 06:11:43;;;;;;;20.05;12.73;;;16.50;99.90;;;;;;4970137;28;20035;-89
2021/08/04 06:14:08;;;;;;;22.13;13.95;;;16.50;99.90;;;;;;4971018;28;20096;-88
2021/08/04 06:16:35;;;;;;;26.23;13.50;;;16.50;99.90;;;;;;4969185;28;20392;-89
2021/08/04 06:19:00;;;;;;;22.38;13.93;;;16.50;99.90;;;;;;4985291;28;20117;-89
2021/08/04 06:21:27;;;;;;;19.20;13.20;;;16.50;99.90;;;;;;4985169;28;20555;-88
2021/08/04 06:23:53;;;;;;;25.65;14.02;;;16.50;99.90;;;;;;4969790;28;20038;-88
2021/08/04 06:26:19;;;;;;;21.75;13.55;;;16.50;99.90;;;;;;4957263;28;20036;-88
2021/08/04 06:28:45;;;;;;;21.45;12.13;;;16.50;99.90;;;;;;4949232;29;20027;-89
2021/08/04 06:31:11;;;;;;;19.40;12.48;;;16.60;99.90;;;;;;4950624;29;20076;-89
2021/08/04 06:33:36;;;;;;;20.85;12.68;;;16.60;99.90;;;;;;4950541;29;20071;-89
2021/08/04 06:36:02;;;;;;;21.05;13.90;;;16.60;99.90;;;;;;4952428;29;20473;-88
2021/08/04 06:38:28;;;;;;;20.23;12.65;;;16.60;99.90;;;;;;4952791;29;20047;-88
2021/08/04 06:40:54;;;;;;;22.02;14.10;;;16.70;99.90;;;;;;4969678;28;20090;-89
2021/08/04 06:43:20;;;;;;;24.83;13.68;;;16.70;99.90;;;;;;4971637;28;20031;-88
2021/08/04 06:45:45;;;;;;;20.05;13.95;;;16.70;99.90;;;;;;4971812;28;20105;-88
2021/08/04 06:48:11;;;;;;;24.60;13.43;;;16.80;99.90;;;;;;4971550;28;20169;-87
2021/08/04 06:50:37;;;;;;;24.25;12.13;;;16.80;99.90;;;;;;4971731;28;20027;-88
2021/08/04 06:53:03;;;;;;;23.88;14.38;;;16.80;99.90;;;;;;4971879;28;20092;-88
2021/08/04 06:55:29;;;;;;;22.05;13.93;;;16.80;99.90;;;;;;4966342;28;20027;-88
2021/08/04 06:57:54;;;;;;;23.35;13.23;;;16.90;99.90;;;;;;4952188;29;20078;-88
2021/08/04 07:00:21;;;;;;;24.13;14.38;;;16.90;99.90;;;;;;4952059;29;20076;-88
2021/08/04 07:02:49;;;;;;;21.83;14.70;;;16.90;99.90;;;;;;4967357;28;20076;-88
2021/08/04 07:05:17;;;;;;;23.70;15.95;;;17.00;99.90;;;;;;4966889;28;20416;-88
2021/08/04 07:07:43;;;;;;;22.95;13.93;;;17.10;99.90;;;;;;4951123;29;20031;-88
2021/08/04 07:10:10;;;;;;;21.25;13.35;;;17.10;99.90;;;;;;4949853;29;20027;-88
2021/08/04 07:12:36;;;;;;;21.83;14.57;;;17.20;99.90;;;;;;4952228;29;20031;-87
2021/08/04 07:15:02;;;;;;;21.63;13.55;;;17.30;99.90;;;;;;4952230;29;20022;-88
2021/08/04 07:17:27;;;;;;;21.67;14.35;;;17.40;99.90;;;;;;4950763;29;20035;-88
2021/08/04 07:19:53;;;;;;;23.52;13.43;;;17.40;99.90;;;;;;4951953;29;20041;-88
2021/08/04 07:22:19;;;;;;;17.80;12.82;;;17.50;99.90;;;;;;4951984;29;20039;-88
2021/08/04 07:24:44;;;;;;;17.88;12.60;;;17.60;99.90;;;;;;4951704;28;20397;-88
2021/08/04 07:27:10;;;;;;;17.45;11.40;;;17.70;99.90;;;;;;4966514;28;20035;-88
2021/08/04 07:29:36;;;;;;;17.70;11.55;;;17.70;99.90;;;;;;4951908;29;20103;-88
2021/08/04 07:32:01;;;;;;;16.80;11.85;;;17.90;99.90;;;;;;4951749;29;20031;-88
2021/08/04 07:34:27;;;;;;;15.93;10.73;;;18.00;99.90;;;;;;4951717;29;20028;-88
2021/08/04 07:36:53;;;;;;;17.27;11.88;;;18.10;99.90;;;;;;4950632;29;20068;-88
2021/08/04 07:39:19;;;;;;;14.93;10.10;;;18.20;99.90;;;;;;4950440;28;20031;-88
2021/08/04 07:41:45;;;;;;;10.38;8.98;;;18.30;99.90;;;;;;4951442;29;20043;-88
2021/08/04 07:44:11;;;;;;;11.20;9.20;;;18.40;99.90;;;;;;4951566;28;20027;-88
2021/08/04 07:46:36;;;;;;;12.40;8.65;;;18.70;99.90;;;;;;4955458;29;20054;-87
2021/08/04 07:49:02;;;;;;;13.85;7.88;;;18.80;99.90;;;;;;4954815;29;20390;-87
2021/08/04 07:51:28;;;;;;;12.10;7.88;;;19.00;99.90;;;;;;4953617;29;20035;-87
2021/08/04 07:53:54;;;;;;;11.18;7.40;;;19.20;99.90;;;;;;4962146;28;20027;-87
2021/08/04 07:56:22;;;;;;;9.57;6.88;;;19.40;99.90;;;;;;4974145;28;20034;-87
2021/08/04 07:58:49;;;;;;;7.05;5.68;;;19.70;99.90;;;;;;4989246;28;20029;-88
2021/08/04 08:01:15;;;;;;;7.63;6.32;;;19.80;99.90;;;;;;4973822;28;20035;-87
2021/08/04 08:03:41;;;;;;;8.18;6.22;;;19.70;99.90;;;;;;4974279;28;20034;-87
2021/08/04 08:06:07;;;;;;;9.23;6.90;;;19.80;99.90;;;;;;4974035;28;20023;-87
2021/08/04 08:08:32;;;;;;;8.77;7.07;;;19.90;99.90;;;;;;4989058;28;20022;-87
2021/08/04 08:10:58;;;;;;;10.63;6.85;;;19.90;99.90;;;;;;4973947;28;20488;-87
2021/08/04 08:13:24;;;;;;;11.40;7.63;;;20.00;99.90;;;;;;4971003;28;20034;-87
2021/08/04 08:15:50;;;;;;;11.15;8.07;;;20.20;99.90;;;;;;4974086;28;20022;-87
2021/08/04 08:18:16;;;;;;;14.18;7.25;;;20.20;99.90;;;;;;4972972;28;20037;-87
2021/08/04 08:20:42;;;;;;;9.82;7.00;;;20.30;99.90;;;;;;4973817;28;20027;-87
2021/08/04 08:23:09;;;;;;;10.88;7.25;;;20.50;99.90;;;;;;4972508;28;20027;-87
2021/08/04 08:25:35;;;;;;;12.30;6.95;;;20.80;97.80;;;;;;4973644;28;20036;-87
2021/08/04 08:28:01;;;;;;;7.20;5.63;;;20.90;98.10;;;;;;4972559;28;20035;-87
2021/08/04 08:30:27;;;;;;;6.25;5.60;;;21.10;98.30;;;;;;4973718;28;20096;-87
2021/08/04 08:32:53;;;;;;;9.10;6.07;;;21.30;95.10;;;;;;4973572;28;20035;-87
2021/08/04 08:35:20;;;;;;;11.90;5.80;;;21.30;90.60;;;;;;4973592;28;20387;-87
2021/08/04 08:37:47;;;;;;;6.78;5.38;;;21.40;88.30;;;;;;4972324;28;20481;-87
2021/08/04 08:40:14;;;;;;;9.95;6.03;;;21.50;90.00;;;;;;4973567;28;20035;-87
2021/08/04 08:42:41;;;;;;;5.82;4.97;;;21.70;91.40;;;;;;4969385;28;20039;-87
2021/08/04 08:45:07;;;;;;;9.63;6.05;;;21.80;86.30;;;;;;4953279;29;20027;-86
2021/08/04 08:47:33;;;;;;;8.57;4.75;;;21.90;85.50;;;;;;4969424;28;20027;-87
2021/08/04 08:50:01;;;;;;;7.85;5.70;;;21.90;81.70;;;;;;4953857;29;20028;-87
2021/08/04 08:52:26;;;;;;;6.78;4.25;;;22.00;87.60;;;;;;4968868;28;20503;-87
2021/08/04 08:54:52;;;;;;;5.63;4.30;;;22.10;87.30;;;;;;4954120;28;20107;-87
2021/08/04 08:57:18;;;;;;;5.50;3.72;;;22.10;77.70;;;;;;4953609;29;20023;-86
2021/08/04 08:59:44;;;;;;;6.07;4.00;;;22.00;73.50;;;;;;4952604;28;20055;-87
2021/08/04 09:02:09;;;;;;;6.40;3.60;;;21.80;73.30;;;;;;4952861;29;20043;-86
2021/08/04 09:04:35;;;;;;;4.35;3.70;;;21.80;72.20;;;;;;4953955;28;20035;-86
2021/08/04 09:07:02;;;;;;;9.00;4.22;;;21.90;78.00;;;;;;4952612;29;20034;-85
2021/08/04 09:09:32;;;;;;;6.82;4.07;;;21.80;75.30;;;;;;4968453;28;20385;-86
2021/08/04 09:12:06;;;;;;;5.78;4.32;;;21.70;75.60;;;;;;4952923;29;20076;-86
2021/08/04 09:14:33;;;;;;;7.20;4.13;;;21.80;76.70;;;;;;4969464;28;20396;-86
2021/08/04 09:17:01;;;;;;;5.85;4.28;;;21.80;77.00;;;;;;4969889;28;20023;-86
2021/08/04 09:19:27;;;;;;;6.65;4.70;;;21.90;79.60;;;;;;4970823;28;20601;-86
2021/08/04 09:22:22;;;;;;;4.55;3.90;;;21.90;80.10;;;;;;4970831;28;20114;-86
2021/08/04 09:25:08;;;;;;;4.10;3.40;;;22.10;82.50;;;;;;4986094;28;20076;-86
2021/08/04 09:27:44;;;;;;;3.85;3.45;;;22.10;76.10;;;;;;4971391;28;20027;-86
2021/08/04 09:30:13;;;;;;;7.20;4.32;;;22.10;72.00;;;;;;4972607;28;20035;-86
2021/08/04 09:32:38;;;;;;;4.28;2.95;;;22.00;68.80;;;;;;4972911;28;20027;-86
2021/08/04 09:35:10;;;;;;;5.18;2.88;;;22.10;68.70;;;;;;4971308;28;20030;-86
2021/08/04 09:37:36;;;;;;;5.70;3.72;;;22.10;70.00;;;;;;4972683;28;20023;-86
2021/08/04 09:40:02;;;;;;;6.43;3.35;;;22.10;70.60;;;;;;4973022;28;20042;-86
2021/08/04 09:42:43;;;;;;;4.13;3.60;;;22.10;72.70;;;;;;4953609;28;20489;-86
2021/08/04 09:45:10;;;;;;;4.95;3.70;;;22.10;72.70;;;;;;4953442;29;20544;-86
2021/08/04 09:47:36;;;;;;;6.32;4.38;;;22.00;78.90;;;;;;4951673;29;20114;-86
2021/08/04 09:50:08;;;;;;;4.72;3.85;;;22.20;77.90;;;;;;4952755;28;20035;-87
2021/08/04 09:52:35;;;;;;;6.07;4.15;;;22.30;77.90;;;;;;4953223;29;20034;-86
2021/08/04 09:55:12;;;;;;;6.32;4.10;;;22.50;79.40;;;;;;4951809;29;20053;-86
2021/08/04 09:57:46;;;;;;;6.13;4.20;;;22.70;80.90;;;;;;4951748;29;20023;-86
2021/08/04 10:00:16;;;;;;;5.22;3.63;;;22.70;79.10;;;;;;4953034;29;20016;-86
2021/08/04 10:02:44;;;;;;;4.57;3.30;;;22.70;74.40;;;;;;4953001;29;20517;-86
2021/08/04 10:05:26;;;;;;;4.22;3.67;;;22.80;77.00;;;;;;4952922;29;20424;-86
2021/08/04 10:08:00;;;;;;;3.85;3.45;;;22.80;74.40;;;;;;4951714;29;20027;-86
2021/08/04 10:10:28;;;;;;;5.10;4.03;;;22.80;76.50;;;;;;4952821;29;20495;-86
2021/08/04 10:12:55;;;;;;;7.40;4.47;;;22.60;76.20;;;;;;4970194;28;20066;-86
2021/08/04 10:15:22;;;;;;;8.52;4.88;;;22.50;80.20;;;;;;4972128;28;20068;-86
2021/08/04 10:17:49;;;;;;;4.97;4.00;;;22.40;82.20;;;;;;4972255;28;20042;-86
2021/08/04 10:20:15;;;;;;;7.90;3.25;;;22.20;82.50;;;;;;4971792;28;20023;-86
2021/08/04 10:22:41;;;;;;;8.63;5.93;;;22.30;83.90;;;;;;4972003;28;20039;-86
2021/08/04 10:25:08;;;;;;;14.60;11.18;;;22.40;82.90;;;;;;4986748;28;20491;-87
2021/08/04 10:27:34;;;;;;;6.25;5.63;;;22.40;82.20;;;;;;4972283;28;20058;-86
2021/08/04 10:30:01;;;;;;;8.32;3.75;;;22.40;75.60;;;;;;4971766;28;20519;-86
2021/08/04 10:32:28;;;;;;;7.50;4.13;;;22.60;73.70;;;;;;4987197;28;20061;-86
2021/08/04 10:34:56;;;;;;;5.95;3.58;;;22.80;73.10;;;;;;4972061;28;20027;-86
2021/08/04 10:37:23;;;;;;;6.05;3.25;;;22.90;72.20;;;;;;4971929;28;20489;-86
2021/08/04 10:39:50;;;;;;;5.13;3.30;;;23.10;68.80;;;;;;4971971;28;20035;-86
2021/08/04 10:42:15;;;;;;;8.07;3.15;;;23.10;70.70;;;;;;4970555;28;20562;-86
2021/08/04 10:44:43;;;;;;;6.10;3.88;;;22.80;74.40;;;;;;4971159;28;20027;-86
2021/08/04 10:47:26;;;;;;;5.32;3.83;;;22.50;74.50;;;;;;4971509;28;20780;-86
2021/08/04 10:50:18;;;;;;;6.68;3.65;;;22.30;75.30;;;;;;4972026;28;20034;-86
2021/08/04 10:53:02;;;;;;;4.57;3.22;;;22.40;78.50;;;;;;4969555;28;20066;-86
2021/08/04 10:55:29;;;;;;;6.28;3.60;;;22.40;76.50;;;;;;4971518;28;20465;-85
2021/08/04 10:58:04;;;;;;;4.18;2.75;;;22.40;72.60;;;;;;4970290;28;20023;-86
2021/08/04 11:00:31;;;;;;;4.45;3.35;;;22.70;73.00;;;;;;4971604;28;20098;-86
2021/08/04 11:02:57;;;;;;;6.22;3.33;;;22.60;71.60;;;;;;4971356;28;20045;-86
2021/08/04 11:05:22;;;;;;;4.97;3.20;;;22.70;69.10;;;;;;4971521;28;20034;-86
2021/08/04 11:08:13;;;;;;;4.22;2.88;;;23.00;68.50;;;;;;4970954;28;20106;-85
2021/08/04 11:10:39;;;;;;;3.13;2.83;;;23.30;68.00;;;;;;4969164;28;20031;-86
2021/08/04 11:13:05;;;;;;;4.65;2.55;;;23.60;69.30;;;;;;4969902;28;20069;-86
2021/08/04 11:15:32;;;;;;;3.60;2.95;;;23.50;70.40;;;;;;4970264;28;20046;-86
2021/08/04 11:18:09;;;;;;;4.00;2.45;;;23.10;66.50;;;;;;4971376;28;20070;-86
2021/08/04 11:20:38;;;;;;;3.78;3.05;;;22.90;65.70;;;;;;4970360;28;20468;-85
2021/08/04 11:23:05;;;;;;;4.43;2.88;;;22.80;69.00;;;;;;4971062;28;20077;-86
2021/08/04 11:25:35;;;;;;;3.78;3.03;;;22.70;67.00;;;;;;4969713;28;20075;-86
2021/08/04 11:28:01;;;;;;;5.95;3.28;;;22.70;67.50;;;;;;4970950;28;20091;-86
2021/08/04 11:30:34;;;;;;;4.72;2.90;;;22.80;69.30;;;;;;4983810;28;20553;-86
2021/08/04 11:33:22;;;;;;;3.33;2.70;;;22.70;68.50;;;;;;4967728;28;20175;-85
2021/08/04 11:36:17;;;;;;;6.13;3.33;;;22.50;68.40;;;;;;4984265;28;20027;-85
2021/08/04 11:39:02;;;;;;;3.83;2.80;;;22.40;70.50;;;;;;4968881;28;20411;-85
2021/08/04 11:41:35;;;;;;;4.07;3.17;;;22.20;70.80;;;;;;4955125;28;20039;-86
2021/08/04 11:44:26;;;;;;;6.53;3.40;;;21.90;72.40;;;;;;4950829;29;20031;-86
2021/08/04 11:47:09;;;;;;;4.60;3.20;;;21.70;76.00;;;;;;4966549;28;20027;-86
2021/08/04 11:49:41;;;;;;;5.85;3.10;;;21.60;80.60;;;;;;4966231;28;20120;-86
2021/08/04 11:52:09;;;;;;;;;;;21.40;82.30;;;;;;4951882;28;20027;-85
2021/08/04 11:54:43;;;;;;;5.90;3.35;;;21.30;85.10;;;;;;4951517;29;19951;-86
2021/08/04 11:57:12;;;;;;;5.80;3.53;;;21.10;85.60;;;;;;4951462;29;20114;-86
2021/08/04 11:59:45;;;;;;;6.70;3.83;;;21.00;85.80;;;;;;4951507;29;20101;-86
2021/08/04 12:02:11;;;;;;;;;;;21.00;86.60;;;;;;4950469;29;20042;-85
2021/08/04 12:04:50;;;;;;;3.20;2.97;;;21.20;84.90;;;;;;4951503;29;19906;-86
2021/08/04 12:07:18;;;;;;;2.60;2.40;;;21.30;85.00;;;;;;4963208;28;20034;-85
2021/08/04 12:09:44;;;;;;;5.22;3.00;;;21.30;84.90;;;;;;4970743;28;20029;-86
2021/08/04 12:12:29;;;;;;;6.75;3.28;;;21.40;83.80;;;;;;4970365;28;20097;-86
2021/08/04 12:14:55;;;;;;;2.83;2.63;;;21.90;80.20;;;;;;4970429;28;20035;-86
2021/08/04 12:17:32;;;;;;;3.83;2.80;;;22.50;80.90;;;;;;4970460;28;20072;-86
2021/08/04 12:20:14;;;;;;;6.88;3.63;;;22.60;76.80;;;;;;4970439;28;20015;-83
2021/08/04 12:22:40;;;;;;;3.58;3.28;;;22.70;74.60;;;;;;4970370;28;20396;-83
2021/08/04 12:25:07;;;;;;;3.65;3.20;;;22.70;74.00;;;;;;4969112;28;20054;-83
2021/08/04 12:27:42;;;;;;;5.40;3.28;;;22.80;74.40;;;;;;4970403;28;20027;-83
2021/08/04 12:30:23;;;;;;;5.43;3.50;;;22.80;76.00;;;;;;4970138;28;20468;-83
2021/08/04 12:33:00;;;;;;;5.10;3.47;;;22.80;72.70;;;;;;4972605;28;20034;-83
2021/08/04 12:35:43;;;;;;;7.78;4.28;;;22.80;71.00;;;;;;4972377;28;20450;-83
2021/08/04 12:38:11;;;;;;;4.82;3.50;;;22.90;72.60;;;;;;4969307;28;20038;-83
2021/08/04 12:40:38;;;;;;;3.40;2.85;;;23.00;72.40;;;;;;4954293;29;20034;-83
2021/08/04 12:43:07;;;;;;;4.35;2.92;;;22.90;67.90;;;;;;4954128;29;20134;-83
2021/08/04 12:45:33;;;;;;;3.95;2.63;;;22.50;68.80;;;;;;4953882;28;20024;-83
2021/08/04 12:48:01;;;;;;;3.67;3.03;;;22.50;72.30;;;;;;4954178;29;20442;-83